createdAt,value
2023-05-11T00:01:49.583Z,99831.97
2023-05-11T00:06:52.634Z,99828.88
2023-05-11T00:11:55.797Z,99827.75
2023-05-11T00:16:58.623Z,99820.84
2023-05-11T00:22:01.973Z,99830.72
2023-05-11T00:27:06.231Z,99825.75
2023-05-11T00:32:09.259Z,99825.00
2023-05-11T00:37:12.309Z,99823.13
2023-05-11T00:42:15.648Z,99819.28
2023-05-11T00:47:18.527Z,99818.19
2023-05-11T00:52:22.711Z,99820.09
2023-05-11T00:57:44.079Z,99823.56
2023-05-11T01:02:47.185Z,99819.69
2023-05-11T01:08:01.428Z,99822.38
2023-05-11T01:13:35.152Z,99825.38
2023-05-11T01:18:43.662Z,99827.28
2023-05-11T01:24:40.276Z,99820.38
2023-05-11T01:30:25.072Z,99822.31
2023-05-11T01:35:32.799Z,99816.56
2023-05-11T01:40:37.118Z,99819.63
2023-05-11T01:45:43.770Z,99817.66
2023-05-11T01:50:51.567Z,99826.50
2023-05-11T01:55:56.796Z,99822.28
2023-05-11T02:01:00.985Z,99823.41
2023-05-11T02:06:07.120Z,99822.28
2023-05-11T02:11:12.390Z,99818.72
2023-05-11T02:16:16.740Z,99819.50
2023-05-11T02:21:21.130Z,99809.41
2023-05-11T02:26:24.269Z,99817.88
2023-05-11T02:31:32.438Z,99816.38
2023-05-11T02:36:38.481Z,99815.53
2023-05-11T02:41:44.715Z,99817.00
2023-05-11T02:46:50.217Z,99811.53
2023-05-11T02:51:55.510Z,99821.97
2023-05-11T02:56:59.064Z,99817.53
2023-05-11T03:02:02.408Z,99810.41
2023-05-11T03:07:07.156Z,99813.13
2023-05-11T03:12:11.227Z,99811.03
2023-05-11T03:17:16.069Z,99810.13
2023-05-11T03:22:20.814Z,99814.00
2023-05-11T03:27:25.895Z,99814.63
2023-05-11T03:32:29.665Z,99803.97
2023-05-11T03:37:34.659Z,99802.72
2023-05-11T03:42:39.470Z,99801.38
2023-05-11T03:47:44.043Z,99802.72
2023-05-11T03:52:48.523Z,99796.88
2023-05-11T03:57:52.107Z,99798.31
2023-05-11T04:02:55.101Z,99807.97
2023-05-11T04:07:58.348Z,99809.13
2023-05-11T04:13:01.436Z,99814.63
2023-05-11T04:18:04.603Z,99807.72
2023-05-11T04:23:10.312Z,99812.72
2023-05-11T04:28:13.413Z,99807.13
2023-05-11T04:33:16.725Z,99811.31
2023-05-11T04:38:20.732Z,99807.69
2023-05-11T04:43:23.672Z,99817.31
2023-05-11T04:48:27.272Z,99809.53
2023-05-11T04:53:30.549Z,99809.78
2023-05-11T04:58:33.767Z,99808.81
2023-05-11T05:03:37.164Z,99807.75
2023-05-11T05:08:40.409Z,99808.97
2023-05-11T05:13:43.348Z,99808.81
2023-05-11T05:18:46.584Z,99801.94
2023-05-11T05:23:51.069Z,99807.00
2023-05-11T05:28:54.105Z,99801.34
2023-05-11T05:33:58.343Z,99798.44
2023-05-11T05:39:01.583Z,99789.00
2023-05-11T05:44:04.895Z,99791.09
2023-05-11T05:49:07.947Z,99789.06
2023-05-11T05:54:13.540Z,99786.97
2023-05-11T05:59:16.875Z,99778.50
2023-05-11T06:04:19.836Z,99777.06
2023-05-11T06:09:23.962Z,99781.13
2023-05-11T06:14:26.909Z,99781.66
2023-05-11T06:19:30.754Z,99783.69
2023-05-11T06:24:34.676Z,99781.16
2023-05-11T06:29:38.797Z,99781.28
2023-05-11T06:34:42.084Z,99777.84
2023-05-11T06:39:49.840Z,99782.41
2023-05-11T06:44:53.203Z,99773.75
2023-05-11T06:49:58.484Z,99767.66
2023-05-11T06:55:01.804Z,99772.91
2023-05-11T07:00:08.531Z,99777.41
2023-05-11T07:05:13.177Z,99771.28
2023-05-11T07:10:16.172Z,99774.88
2023-05-11T07:15:19.224Z,99772.75
2023-05-11T07:20:22.181Z,99764.72
2023-05-11T07:25:25.431Z,99755.75
2023-05-11T07:30:47.725Z,99762.28
2023-05-11T07:35:52.540Z,99761.41
2023-05-11T07:40:55.580Z,99759.34
2023-05-11T07:45:58.624Z,99755.09
2023-05-11T07:51:01.848Z,99754.34
2023-05-11T07:56:05.521Z,99757.84
2023-05-11T08:01:08.828Z,99756.00
2023-05-11T08:06:12.445Z,99749.94
2023-05-11T08:11:15.357Z,99744.03
2023-05-11T08:16:18.481Z,99748.00
2023-05-11T08:21:21.451Z,99749.09
2023-05-11T08:26:24.327Z,99744.19
2023-05-11T08:31:27.133Z,99743.81
2023-05-11T08:36:30.147Z,99739.50
2023-05-11T08:41:52.329Z,99746.22
2023-05-11T08:47:05.935Z,99728.19
2023-05-11T08:52:20.213Z,99735.00
2023-05-11T08:57:44.477Z,99722.56
2023-05-11T09:02:49.131Z,99734.03
2023-05-11T09:08:12.788Z,99724.78
2023-05-11T09:13:16.225Z,99710.88
2023-05-11T09:18:19.142Z,99718.91
2023-05-11T09:23:26.859Z,99713.09
2023-05-11T09:28:36.098Z,99710.56
2023-05-11T09:33:39.208Z,99710.44
2023-05-11T09:38:42.546Z,99696.75
2023-05-11T09:43:45.522Z,99688.72
2023-05-11T09:48:59.514Z,99684.53
2023-05-11T09:54:18.152Z,99683.06
2023-05-11T09:59:41.263Z,99688.03
2023-05-11T10:04:44.454Z,99680.34
2023-05-11T10:09:47.597Z,99691.53
2023-05-11T10:14:53.742Z,99701.19
2023-05-11T10:19:58.000Z,99709.13
2023-05-11T10:25:01.797Z,99714.13
2023-05-11T10:30:09.394Z,99713.81
2023-05-11T10:35:13.165Z,99743.56
2023-05-11T10:40:16.983Z,99739.41
2023-05-11T10:45:38.509Z,99746.25
2023-05-11T10:51:12.534Z,99756.59
2023-05-11T10:56:41.929Z,99750.75
2023-05-11T11:01:46.518Z,99759.78
2023-05-11T11:07:05.125Z,99762.84
2023-05-11T11:12:11.896Z,99750.25
2023-05-11T11:17:21.040Z,99781.75
2023-05-11T11:22:36.547Z,99784.13
2023-05-11T11:27:59.034Z,99787.84
2023-05-11T11:33:08.107Z,99771.34
2023-05-11T11:38:16.553Z,99790.22
2023-05-11T11:43:23.797Z,99794.47
2023-05-11T11:48:37.643Z,99791.78
2023-05-11T11:53:44.811Z,99792.94
2023-05-11T11:58:47.899Z,99789.72
2023-05-11T12:04:05.933Z,99800.13
2023-05-11T12:09:09.117Z,99805.56
2023-05-11T12:14:13.246Z,99801.72
2023-05-11T12:19:24.710Z,99812.63
2023-05-11T12:24:27.661Z,99796.72
2023-05-11T12:29:31.590Z,99793.25
2023-05-11T12:34:34.565Z,99800.66
2023-05-11T12:39:38.024Z,99806.19
2023-05-11T12:44:41.494Z,99816.03
2023-05-11T12:49:44.976Z,99815.06
2023-05-11T12:55:00.274Z,99811.53
2023-05-11T13:00:11.779Z,99816.50
2023-05-11T13:05:14.980Z,99817.59
2023-05-11T13:10:24.400Z,99819.28
2023-05-11T13:15:28.829Z,99809.91
2023-05-11T13:20:34.157Z,99813.31
2023-05-11T13:25:46.205Z,99814.41
2023-05-11T13:30:49.265Z,99811.00
2023-05-11T13:35:52.348Z,99801.88
2023-05-11T13:40:55.443Z,99797.56
2023-05-11T13:45:59.014Z,99799.78
2023-05-11T13:51:01.937Z,99791.94
2023-05-11T13:56:12.290Z,99792.22
2023-05-11T14:01:15.479Z,99795.75
2023-05-11T14:06:18.357Z,99784.97
2023-05-11T14:11:21.743Z,99788.59
2023-05-11T14:16:24.943Z,99784.06
2023-05-11T14:21:27.862Z,99783.78
2023-05-11T14:26:30.845Z,99783.72
2023-05-11T14:31:35.190Z,99784.91
2023-05-11T14:36:38.570Z,99793.53
2023-05-11T14:41:41.362Z,99778.84
2023-05-11T14:46:44.726Z,99779.66
2023-05-11T14:51:47.583Z,99777.91
2023-05-11T14:57:09.130Z,99774.34
2023-05-11T15:02:30.981Z,99775.59
2023-05-11T15:07:34.504Z,99762.22
2023-05-11T15:12:37.309Z,99776.59
2023-05-11T15:17:40.193Z,99779.03
2023-05-11T15:22:43.498Z,99766.97
2023-05-11T15:27:46.627Z,99769.41
2023-05-11T15:32:49.686Z,99755.47
2023-05-11T15:37:52.828Z,99752.56
2023-05-11T15:42:58.483Z,99747.81
2023-05-11T15:48:02.552Z,99751.25
2023-05-11T15:53:05.387Z,99738.34
2023-05-11T15:58:08.648Z,99743.88
2023-05-11T16:03:12.076Z,99737.88
2023-05-11T16:08:16.775Z,99716.41
2023-05-11T16:13:19.820Z,99712.56
2023-05-11T16:18:22.928Z,99715.16
2023-05-11T16:23:25.911Z,99703.28
2023-05-11T16:28:28.792Z,99695.09
2023-05-11T16:33:31.746Z,99699.00
2023-05-11T16:38:34.673Z,99708.53
2023-05-11T16:43:41.817Z,99697.91
2023-05-11T16:48:44.964Z,99703.72
2023-05-11T16:53:48.015Z,99706.03
2023-05-11T16:58:50.958Z,99705.34
2023-05-11T17:03:53.823Z,99707.31
2023-05-11T17:08:57.186Z,99707.00
2023-05-11T17:14:00.102Z,99703.53
2023-05-11T17:19:03.676Z,99707.69
2023-05-11T17:24:06.866Z,99699.13
2023-05-11T17:29:28.164Z,99703.31
2023-05-11T17:34:31.423Z,99701.00
2023-05-11T17:39:34.643Z,99703.28
2023-05-11T17:44:38.551Z,99714.03
2023-05-11T17:49:42.284Z,99714.84
2023-05-11T17:54:46.873Z,99710.78
2023-05-11T17:59:50.096Z,99709.69
2023-05-11T18:04:53.115Z,99703.63
2023-05-11T18:09:56.334Z,99694.81
2023-05-11T18:15:00.114Z,99683.31
2023-05-11T18:20:05.326Z,99667.94
2023-05-11T18:25:09.047Z,99670.22
2023-05-11T18:30:12.341Z,99666.41
2023-05-11T18:35:17.036Z,99669.06
2023-05-11T18:40:20.507Z,99652.91
2023-05-11T18:45:23.746Z,99650.97
2023-05-11T18:50:29.807Z,99639.81
2023-05-11T18:55:44.745Z,99634.03
2023-05-11T19:00:49.723Z,99621.69
2023-05-11T19:05:52.818Z,99631.97
2023-05-11T19:10:55.857Z,99616.88
2023-05-11T19:15:58.741Z,99619.50
2023-05-11T19:21:03.321Z,99611.00
2023-05-11T19:26:06.760Z,99608.34
2023-05-11T19:31:31.568Z,99598.75
2023-05-11T19:36:34.752Z,99596.84
2023-05-11T19:41:37.690Z,99590.78
2023-05-11T19:46:46.738Z,99582.63
2023-05-11T19:51:50.094Z,99573.03
2023-05-11T19:56:53.163Z,99577.31
2023-05-11T20:01:56.257Z,99558.94
2023-05-11T20:06:59.301Z,99552.91
2023-05-11T20:12:02.450Z,99547.69
2023-05-11T20:17:07.647Z,99547.34
2023-05-11T20:22:10.739Z,99542.00
2023-05-11T20:27:13.845Z,99538.13
2023-05-11T20:32:16.939Z,99520.09
2023-05-11T20:37:19.912Z,99526.94
2023-05-11T20:42:23.051Z,99538.38
2023-05-11T20:47:25.864Z,99528.31
2023-05-11T20:52:29.110Z,99518.91
2023-05-11T20:57:32.071Z,99507.69
2023-05-11T21:02:35.533Z,99526.88
2023-05-11T21:07:38.436Z,99513.38
2023-05-11T21:12:41.499Z,99517.59
2023-05-11T21:17:44.491Z,99519.41
2023-05-11T21:22:47.850Z,99516.84
2023-05-11T21:27:50.927Z,99519.19
2023-05-11T21:32:53.981Z,99504.38
2023-05-11T21:37:57.808Z,99507.97
2023-05-11T21:43:00.912Z,99513.28
2023-05-11T21:48:04.354Z,99508.56
2023-05-11T21:53:07.367Z,99490.13
2023-05-11T21:58:11.112Z,99491.91
2023-05-11T22:03:14.293Z,99484.59
2023-05-11T22:08:17.217Z,99478.50
2023-05-11T22:13:20.212Z,99473.03
2023-05-11T22:18:23.438Z,99462.00
2023-05-11T22:23:27.125Z,99445.97
2023-05-11T22:28:33.153Z,99462.06
2023-05-11T22:33:36.190Z,99452.16
2023-05-11T22:38:39.116Z,99452.59
2023-05-11T22:43:43.400Z,99448.72
2023-05-11T22:48:46.447Z,99447.22
2023-05-11T22:53:49.492Z,99447.56
2023-05-11T22:58:53.053Z,99440.66
2023-05-11T23:03:55.990Z,99436.00
2023-05-11T23:09:17.445Z,99434.84
2023-05-11T23:14:20.532Z,99435.22
2023-05-11T23:19:25.262Z,99445.31
2023-05-11T23:24:29.165Z,99428.56
2023-05-11T23:29:32.195Z,99400.66
2023-05-11T23:34:35.245Z,99404.09
2023-05-11T23:39:38.719Z,99398.38
2023-05-11T23:44:41.650Z,99382.28
2023-05-11T23:49:44.626Z,99388.75
2023-05-11T23:54:47.577Z,99393.94
2023-05-11T23:59:50.422Z,99398.31
